sensor_id;sensor_type;location;lat;lon;timestamp;P1;durP1;ratioP1;P2;durP2;ratioP2
32080;SDS011;18593;51.426;7.030;2024-01-16T00:00:19;15.60;;;6.88;;
32080;SDS011;18593;51.426;7.030;2024-01-16T00:02:47;15.27;;;7.25;;
32080;SDS011;18593;51.426;7.030;2024-01-16T00:05:14;13.65;;;6.90;;
32080;SDS011;18593;51.426;7.030;2024-01-16T00:07:45;15.75;;;7.28;;
32080;SDS011;18593;51.426;7.030;2024-01-16T00:10:13;14.98;;;7.15;;
32080;SDS011;18593;51.426;7.030;2024-01-16T00:12:44;21.13;;;7.55;;
32080;SDS011;18593;51.426;7.030;2024-01-16T00:15:15;14.23;;;6.82;;
32080;SDS011;18593;51.426;7.030;2024-01-16T00:17:46;14.73;;;6.70;;
32080;SDS011;18593;51.426;7.030;2024-01-16T00:20:16;14.40;;;7.13;;
32080;SDS011;18593;51.426;7.030;2024-01-16T00:22:43;11.43;;;6.47;;
32080;SDS011;18593;51.426;7.030;2024-01-16T00:25:14;14.95;;;6.28;;
32080;SDS011;18593;51.426;7.030;2024-01-16T00:27:42;17.63;;;7.53;;
32080;SDS011;18593;51.426;7.030;2024-01-16T00:30:13;12.18;;;6.13;;
32080;SDS011;18593;51.426;7.030;2024-01-16T00:32:42;11.47;;;6.57;;
32080;SDS011;18593;51.426;7.030;2024-01-16T00:35:13;16.92;;;6.63;;
32080;SDS011;18593;51.426;7.030;2024-01-16T00:37:41;19.50;;;6.65;;
32080;SDS011;18593;51.426;7.030;2024-01-16T00:40:12;14.38;;;6.45;;
32080;SDS011;18593;51.426;7.030;2024-01-16T00:42:42;16.38;;;6.60;;
32080;SDS011;18593;51.426;7.030;2024-01-16T00:45:16;12.27;;;6.03;;
32080;SDS011;18593;51.426;7.030;2024-01-16T00:47:46;15.98;;;6.63;;
32080;SDS011;18593;51.426;7.030;2024-01-16T00:50:13;13.15;;;6.20;;
32080;SDS011;18593;51.426;7.030;2024-01-16T00:52:42;17.38;;;6.40;;
32080;SDS011;18593;51.426;7.030;2024-01-16T00:55:12;14.88;;;5.90;;
32080;SDS011;18593;51.426;7.030;2024-01-16T00:57:40;17.83;;;5.95;;
32080;SDS011;18593;51.426;7.030;2024-01-16T01:00:10;10.75;;;6.47;;
32080;SDS011;18593;51.426;7.030;2024-01-16T01:02:38;10.00;;;5.60;;
32080;SDS011;18593;51.426;7.030;2024-01-16T01:05:08;16.63;;;5.75;;
32080;SDS011;18593;51.426;7.030;2024-01-16T01:07:41;15.25;;;5.88;;
32080;SDS011;18593;51.426;7.030;2024-01-16T01:10:09;14.55;;;5.93;;
32080;SDS011;18593;51.426;7.030;2024-01-16T01:12:37;13.00;;;5.35;;
32080;SDS011;18593;51.426;7.030;2024-01-16T01:15:08;11.18;;;5.38;;
32080;SDS011;18593;51.426;7.030;2024-01-16T01:17:37;15.00;;;5.20;;
32080;SDS011;18593;51.426;7.030;2024-01-16T01:20:09;13.63;;;5.35;;
32080;SDS011;18593;51.426;7.030;2024-01-16T01:22:40;12.48;;;4.78;;
32080;SDS011;18593;51.426;7.030;2024-01-16T01:25:11;11.48;;;4.78;;
32080;SDS011;18593;51.426;7.030;2024-01-16T01:27:41;11.63;;;4.80;;
32080;SDS011;18593;51.426;7.030;2024-01-16T01:30:12;12.10;;;4.80;;
32080;SDS011;18593;51.426;7.030;2024-01-16T01:32:40;17.75;;;5.13;;
32080;SDS011;18593;51.426;7.030;2024-01-16T01:35:13;16.45;;;6.10;;
32080;SDS011;18593;51.426;7.030;2024-01-16T01:37:49;11.27;;;4.93;;
32080;SDS011;18593;51.426;7.030;2024-01-16T01:40:20;12.80;;;5.00;;
32080;SDS011;18593;51.426;7.030;2024-01-16T01:42:48;9.82;;;4.80;;
32080;SDS011;18593;51.426;7.030;2024-01-16T01:45:16;11.02;;;5.28;;
32080;SDS011;18593;51.426;7.030;2024-01-16T01:47:46;12.20;;;5.35;;
32080;SDS011;18593;51.426;7.030;2024-01-16T01:50:16;11.80;;;4.90;;
32080;SDS011;18593;51.426;7.030;2024-01-16T01:52:44;11.73;;;5.05;;
32080;SDS011;18593;51.426;7.030;2024-01-16T01:55:14;18.33;;;5.72;;
32080;SDS011;18593;51.426;7.030;2024-01-16T01:57:45;19.48;;;6.30;;
32080;SDS011;18593;51.426;7.030;2024-01-16T02:00:16;12.90;;;5.45;;
32080;SDS011;18593;51.426;7.030;2024-01-16T02:02:44;14.18;;;6.00;;
32080;SDS011;18593;51.426;7.030;2024-01-16T02:05:12;15.32;;;6.10;;
32080;SDS011;18593;51.426;7.030;2024-01-16T02:07:46;13.13;;;6.20;;
32080;SDS011;18593;51.426;7.030;2024-01-16T02:10:14;13.73;;;6.50;;
32080;SDS011;18593;51.426;7.030;2024-01-16T02:12:42;17.45;;;6.38;;
32080;SDS011;18593;51.426;7.030;2024-01-16T02:15:12;15.50;;;6.28;;
32080;SDS011;18593;51.426;7.030;2024-01-16T02:17:42;13.73;;;7.60;;
32080;SDS011;18593;51.426;7.030;2024-01-16T02:20:10;15.05;;;7.30;;
32080;SDS011;18593;51.426;7.030;2024-01-16T02:22:41;16.45;;;7.95;;
32080;SDS011;18593;51.426;7.030;2024-01-16T02:25:22;13.70;;;7.78;;
32080;SDS011;18593;51.426;7.030;2024-01-16T02:27:52;16.58;;;7.70;;
32080;SDS011;18593;51.426;7.030;2024-01-16T02:30:22;13.82;;;7.47;;
32080;SDS011;18593;51.426;7.030;2024-01-16T02:32:50;15.75;;;7.82;;
32080;SDS011;18593;51.426;7.030;2024-01-16T02:35:20;13.93;;;6.90;;
32080;SDS011;18593;51.426;7.030;2024-01-16T02:37:47;16.95;;;8.07;;
32080;SDS011;18593;51.426;7.030;2024-01-16T02:40:18;14.85;;;9.23;;
32080;SDS011;18593;51.426;7.030;2024-01-16T02:42:47;17.52;;;8.38;;
32080;SDS011;18593;51.426;7.030;2024-01-16T02:45:14;16.20;;;8.43;;
32080;SDS011;18593;51.426;7.030;2024-01-16T02:47:44;16.95;;;9.15;;
32080;SDS011;18593;51.426;7.030;2024-01-16T02:50:13;17.85;;;10.52;;
32080;SDS011;18593;51.426;7.030;2024-01-16T02:52:41;17.88;;;11.07;;
32080;SDS011;18593;51.426;7.030;2024-01-16T02:55:10;21.80;;;11.52;;
32080;SDS011;18593;51.426;7.030;2024-01-16T02:57:38;19.95;;;11.90;;
32080;SDS011;18593;51.426;7.030;2024-01-16T03:00:08;22.95;;;12.95;;
32080;SDS011;18593;51.426;7.030;2024-01-16T03:02:37;23.42;;;13.60;;
32080;SDS011;18593;51.426;7.030;2024-01-16T03:05:04;24.95;;;14.32;;
32080;SDS011;18593;51.426;7.030;2024-01-16T03:07:34;24.25;;;15.95;;
32080;SDS011;18593;51.426;7.030;2024-01-16T03:10:02;26.08;;;16.67;;
32080;SDS011;18593;51.426;7.030;2024-01-16T03:12:30;32.85;;;17.90;;
32080;SDS011;18593;51.426;7.030;2024-01-16T03:14:57;31.30;;;18.17;;
32080;SDS011;18593;51.426;7.030;2024-01-16T03:17:29;32.55;;;19.35;;
32080;SDS011;18593;51.426;7.030;2024-01-16T03:19:57;35.10;;;19.55;;
32080;SDS011;18593;51.426;7.030;2024-01-16T03:22:24;33.10;;;18.98;;
32080;SDS011;18593;51.426;7.030;2024-01-16T03:24:55;33.67;;;19.73;;
32080;SDS011;18593;51.426;7.030;2024-01-16T03:27:22;33.38;;;21.42;;
32080;SDS011;18593;51.426;7.030;2024-01-16T03:29:50;34.67;;;21.58;;
32080;SDS011;18593;51.426;7.030;2024-01-16T03:32:21;35.65;;;20.70;;
32080;SDS011;18593;51.426;7.030;2024-01-16T03:34:50;35.63;;;20.73;;
32080;SDS011;18593;51.426;7.030;2024-01-16T03:37:17;34.70;;;20.33;;
32080;SDS011;18593;51.426;7.030;2024-01-16T03:39:48;33.78;;;20.60;;
32080;SDS011;18593;51.426;7.030;2024-01-16T03:42:16;32.67;;;19.98;;
32080;SDS011;18593;51.426;7.030;2024-01-16T03:44:44;33.95;;;19.35;;
32080;SDS011;18593;51.426;7.030;2024-01-16T03:47:11;30.10;;;18.30;;
32080;SDS011;18593;51.426;7.030;2024-01-16T03:49:39;28.58;;;18.15;;
32080;SDS011;18593;51.426;7.030;2024-01-16T03:52:11;28.58;;;17.88;;
32080;SDS011;18593;51.426;7.030;2024-01-16T03:54:38;34.85;;;19.45;;
32080;SDS011;18593;51.426;7.030;2024-01-16T03:57:07;31.35;;;19.15;;
32080;SDS011;18593;51.426;7.030;2024-01-16T03:59:42;33.30;;;19.20;;
32080;SDS011;18593;51.426;7.030;2024-01-16T04:02:10;34.78;;;19.10;;
32080;SDS011;18593;51.426;7.030;2024-01-16T04:04:39;30.55;;;19.08;;
32080;SDS011;18593;51.426;7.030;2024-01-16T04:07:11;31.90;;;20.08;;
32080;SDS011;18593;51.426;7.030;2024-01-16T04:09:41;32.03;;;19.50;;
32080;SDS011;18593;51.426;7.030;2024-01-16T04:12:10;37.28;;;19.50;;
32080;SDS011;18593;51.426;7.030;2024-01-16T04:14:40;30.88;;;17.45;;
32080;SDS011;18593;51.426;7.030;2024-01-16T04:17:08;30.55;;;17.98;;
32080;SDS011;18593;51.426;7.030;2024-01-16T04:19:37;29.95;;;17.08;;
32080;SDS011;18593;51.426;7.030;2024-01-16T04:22:07;28.35;;;17.50;;
32080;SDS011;18593;51.426;7.030;2024-01-16T04:24:37;28.17;;;16.90;;
32080;SDS011;18593;51.426;7.030;2024-01-16T04:27:04;32.33;;;16.92;;
32080;SDS011;18593;51.426;7.030;2024-01-16T04:29:32;27.02;;;16.27;;
32080;SDS011;18593;51.426;7.030;2024-01-16T04:32:03;26.02;;;15.73;;
32080;SDS011;18593;51.426;7.030;2024-01-16T04:34:31;27.38;;;15.02;;
32080;SDS011;18593;51.426;7.030;2024-01-16T04:36:59;29.58;;;15.70;;
32080;SDS011;18593;51.426;7.030;2024-01-16T04:39:28;26.08;;;13.93;;
32080;SDS011;18593;51.426;7.030;2024-01-16T04:41:58;24.50;;;14.15;;
32080;SDS011;18593;51.426;7.030;2024-01-16T04:44:25;28.40;;;13.48;;
32080;SDS011;18593;51.426;7.030;2024-01-16T04:46:53;22.73;;;13.27;;
32080;SDS011;18593;51.426;7.030;2024-01-16T04:49:20;24.38;;;13.05;;
32080;SDS011;18593;51.426;7.030;2024-01-16T04:51:48;20.40;;;11.75;;
32080;SDS011;18593;51.426;7.030;2024-01-16T04:54:15;23.92;;;12.52;;
32080;SDS011;18593;51.426;7.030;2024-01-16T04:56:45;21.85;;;11.98;;
32080;SDS011;18593;51.426;7.030;2024-01-16T04:59:14;21.60;;;11.75;;
32080;SDS011;18593;51.426;7.030;2024-01-16T05:01:42;22.08;;;10.85;;
32080;SDS011;18593;51.426;7.030;2024-01-16T05:04:08;19.73;;;10.68;;
32080;SDS011;18593;51.426;7.030;2024-01-16T05:06:35;16.60;;;9.73;;
32080;SDS011;18593;51.426;7.030;2024-01-16T05:09:06;17.13;;;9.60;;
32080;SDS011;18593;51.426;7.030;2024-01-16T05:11:37;20.02;;;9.23;;
32080;SDS011;18593;51.426;7.030;2024-01-16T05:14:08;19.17;;;9.20;;
32080;SDS011;18593;51.426;7.030;2024-01-16T05:16:37;13.43;;;8.13;;
32080;SDS011;18593;51.426;7.030;2024-01-16T05:19:04;14.20;;;8.35;;
32080;SDS011;18593;51.426;7.030;2024-01-16T05:21:35;14.40;;;7.82;;
32080;SDS011;18593;51.426;7.030;2024-01-16T05:24:07;18.23;;;7.95;;
32080;SDS011;18593;51.426;7.030;2024-01-16T05:26:35;16.52;;;8.10;;
32080;SDS011;18593;51.426;7.030;2024-01-16T05:29:04;16.48;;;8.00;;
32080;SDS011;18593;51.426;7.030;2024-01-16T05:31:33;13.18;;;7.78;;
32080;SDS011;18593;51.426;7.030;2024-01-16T05:34:08;13.48;;;7.78;;
32080;SDS011;18593;51.426;7.030;2024-01-16T05:36:36;16.58;;;8.05;;
32080;SDS011;18593;51.426;7.030;2024-01-16T05:39:04;14.20;;;7.63;;
32080;SDS011;18593;51.426;7.030;2024-01-16T05:41:33;17.23;;;8.73;;
32080;SDS011;18593;51.426;7.030;2024-01-16T05:44:02;13.88;;;7.80;;
32080;SDS011;18593;51.426;7.030;2024-01-16T05:46:30;15.57;;;8.45;;
32080;SDS011;18593;51.426;7.030;2024-01-16T05:49:00;16.23;;;8.82;;
32080;SDS011;18593;51.426;7.030;2024-01-16T05:51:30;16.05;;;9.07;;
32080;SDS011;18593;51.426;7.030;2024-01-16T05:53:58;19.08;;;9.38;;
32080;SDS011;18593;51.426;7.030;2024-01-16T05:56:25;22.02;;;11.38;;
32080;SDS011;18593;51.426;7.030;2024-01-16T05:58:54;23.67;;;13.00;;
32080;SDS011;18593;51.426;7.030;2024-01-16T06:01:29;23.55;;;13.23;;
32080;SDS011;18593;51.426;7.030;2024-01-16T06:03:57;23.95;;;13.23;;
32080;SDS011;18593;51.426;7.030;2024-01-16T06:06:27;23.13;;;13.33;;
32080;SDS011;18593;51.426;7.030;2024-01-16T06:08:55;23.60;;;13.77;;
32080;SDS011;18593;51.426;7.030;2024-01-16T06:11:30;24.27;;;14.95;;
32080;SDS011;18593;51.426;7.030;2024-01-16T06:13:59;27.85;;;15.63;;
32080;SDS011;18593;51.426;7.030;2024-01-16T06:16:28;28.40;;;16.90;;
32080;SDS011;18593;51.426;7.030;2024-01-16T06:18:56;33.42;;;17.60;;
32080;SDS011;18593;51.426;7.030;2024-01-16T06:21:26;28.15;;;16.17;;
32080;SDS011;18593;51.426;7.030;2024-01-16T06:23:54;30.73;;;17.88;;
32080;SDS011;18593;51.426;7.030;2024-01-16T06:26:22;29.45;;;17.50;;
32080;SDS011;18593;51.426;7.030;2024-01-16T06:28:49;29.42;;;18.35;;
32080;SDS011;18593;51.426;7.030;2024-01-16T06:31:17;35.17;;;18.95;;
32080;SDS011;18593;51.426;7.030;2024-01-16T06:33:48;35.20;;;19.23;;
32080;SDS011;18593;51.426;7.030;2024-01-16T06:36:16;28.58;;;18.45;;
32080;SDS011;18593;51.426;7.030;2024-01-16T06:38:45;34.08;;;18.77;;
32080;SDS011;18593;51.426;7.030;2024-01-16T06:41:13;35.42;;;18.25;;
32080;SDS011;18593;51.426;7.030;2024-01-16T06:43:42;38.42;;;19.17;;
32080;SDS011;18593;51.426;7.030;2024-01-16T06:46:09;36.55;;;18.77;;
32080;SDS011;18593;51.426;7.030;2024-01-16T06:48:39;32.88;;;16.88;;
32080;SDS011;18593;51.426;7.030;2024-01-16T06:51:06;34.22;;;17.90;;
32080;SDS011;18593;51.426;7.030;2024-01-16T06:53:35;33.53;;;16.58;;
32080;SDS011;18593;51.426;7.030;2024-01-16T06:56:07;26.23;;;13.85;;
32080;SDS011;18593;51.426;7.030;2024-01-16T06:58:34;23.73;;;14.18;;
32080;SDS011;18593;51.426;7.030;2024-01-16T07:01:03;32.55;;;13.93;;
32080;SDS011;18593;51.426;7.030;2024-01-16T07:03:31;25.48;;;12.68;;
32080;SDS011;18593;51.426;7.030;2024-01-16T07:05:58;22.30;;;11.80;;
32080;SDS011;18593;51.426;7.030;2024-01-16T07:08:26;27.70;;;12.63;;
32080;SDS011;18593;51.426;7.030;2024-01-16T07:10:53;27.30;;;11.75;;
32080;SDS011;18593;51.426;7.030;2024-01-16T07:13:23;22.08;;;11.40;;
32080;SDS011;18593;51.426;7.030;2024-01-16T07:15:52;28.55;;;9.95;;
32080;SDS011;18593;51.426;7.030;2024-01-16T07:18:19;16.40;;;8.90;;
32080;SDS011;18593;51.426;7.030;2024-01-16T07:20:47;21.60;;;8.82;;
32080;SDS011;18593;51.426;7.030;2024-01-16T07:23:15;21.77;;;8.10;;
32080;SDS011;18593;51.426;7.030;2024-01-16T07:25:43;20.52;;;7.85;;
32080;SDS011;18593;51.426;7.030;2024-01-16T07:28:10;21.70;;;7.22;;
32080;SDS011;18593;51.426;7.030;2024-01-16T07:30:41;18.67;;;7.72;;
32080;SDS011;18593;51.426;7.030;2024-01-16T07:33:09;17.27;;;7.65;;
32080;SDS011;18593;51.426;7.030;2024-01-16T07:35:36;18.92;;;8.02;;
32080;SDS011;18593;51.426;7.030;2024-01-16T07:38:06;15.43;;;7.25;;
32080;SDS011;18593;51.426;7.030;2024-01-16T07:40:34;17.42;;;8.23;;
32080;SDS011;18593;51.426;7.030;2024-01-16T07:43:01;16.23;;;7.47;;
32080;SDS011;18593;51.426;7.030;2024-01-16T07:45:29;21.73;;;7.55;;
32080;SDS011;18593;51.426;7.030;2024-01-16T07:47:58;17.95;;;7.07;;
32080;SDS011;18593;51.426;7.030;2024-01-16T07:50:26;17.60;;;8.30;;
32080;SDS011;18593;51.426;7.030;2024-01-16T07:52:54;15.55;;;7.15;;
32080;SDS011;18593;51.426;7.030;2024-01-16T07:55:21;22.10;;;7.82;;
32080;SDS011;18593;51.426;7.030;2024-01-16T07:57:49;18.23;;;7.45;;
32080;SDS011;18593;51.426;7.030;2024-01-16T08:00:18;23.75;;;6.75;;
32080;SDS011;18593;51.426;7.030;2024-01-16T08:02:45;15.70;;;6.22;;
32080;SDS011;18593;51.426;7.030;2024-01-16T08:05:14;17.73;;;6.70;;
32080;SDS011;18593;51.426;7.030;2024-01-16T08:07:43;16.52;;;6.32;;
32080;SDS011;18593;51.426;7.030;2024-01-16T08:10:10;23.73;;;6.78;;
32080;SDS011;18593;51.426;7.030;2024-01-16T08:12:38;16.42;;;5.50;;
32080;SDS011;18593;51.426;7.030;2024-01-16T08:15:06;19.10;;;5.70;;
32080;SDS011;18593;51.426;7.030;2024-01-16T08:17:36;11.98;;;4.80;;
32080;SDS011;18593;51.426;7.030;2024-01-16T08:20:04;15.40;;;5.00;;
32080;SDS011;18593;51.426;7.030;2024-01-16T08:22:36;12.77;;;5.10;;
32080;SDS011;18593;51.426;7.030;2024-01-16T08:25:04;12.07;;;4.72;;
32080;SDS011;18593;51.426;7.030;2024-01-16T08:27:33;18.85;;;5.22;;
32080;SDS011;18593;51.426;7.030;2024-01-16T08:30:02;12.80;;;4.50;;
32080;SDS011;18593;51.426;7.030;2024-01-16T08:32:33;20.50;;;4.73;;
32080;SDS011;18593;51.426;7.030;2024-01-16T08:35:16;14.85;;;4.85;;
32080;SDS011;18593;51.426;7.030;2024-01-16T08:37:45;14.05;;;4.55;;
32080;SDS011;18593;51.426;7.030;2024-01-16T08:40:13;16.40;;;4.97;;
32080;SDS011;18593;51.426;7.030;2024-01-16T08:42:41;13.43;;;4.15;;
32080;SDS011;18593;51.426;7.030;2024-01-16T08:45:08;17.15;;;4.32;;
32080;SDS011;18593;51.426;7.030;2024-01-16T08:47:37;17.05;;;4.05;;
32080;SDS011;18593;51.426;7.030;2024-01-16T08:50:08;19.02;;;4.35;;
32080;SDS011;18593;51.426;7.030;2024-01-16T08:52:35;14.50;;;4.28;;
32080;SDS011;18593;51.426;7.030;2024-01-16T08:55:05;17.02;;;4.22;;
32080;SDS011;18593;51.426;7.030;2024-01-16T08:57:35;11.95;;;4.40;;
32080;SDS011;18593;51.426;7.030;2024-01-16T09:00:04;16.27;;;4.38;;
32080;SDS011;18593;51.426;7.030;2024-01-16T09:02:34;13.18;;;4.20;;
32080;SDS011;18593;51.426;7.030;2024-01-16T09:05:01;15.23;;;4.28;;
32080;SDS011;18593;51.426;7.030;2024-01-16T09:07:30;17.80;;;4.15;;
32080;SDS011;18593;51.426;7.030;2024-01-16T09:10:00;18.52;;;4.00;;
32080;SDS011;18593;51.426;7.030;2024-01-16T09:12:30;14.40;;;3.70;;
32080;SDS011;18593;51.426;7.030;2024-01-16T09:14:58;18.45;;;4.05;;
32080;SDS011;18593;51.426;7.030;2024-01-16T09:17:26;13.23;;;3.90;;
32080;SDS011;18593;51.426;7.030;2024-01-16T09:19:56;13.70;;;4.00;;
32080;SDS011;18593;51.426;7.030;2024-01-16T09:22:28;17.92;;;4.18;;
32080;SDS011;18593;51.426;7.030;2024-01-16T09:24:58;19.13;;;4.25;;
32080;SDS011;18593;51.426;7.030;2024-01-16T09:27:29;12.80;;;4.97;;
32080;SDS011;18593;51.426;7.030;2024-01-16T09:29:58;14.25;;;3.85;;
32080;SDS011;18593;51.426;7.030;2024-01-16T09:32:27;12.57;;;4.05;;
32080;SDS011;18593;51.426;7.030;2024-01-16T09:35:00;16.85;;;4.57;;
32080;SDS011;18593;51.426;7.030;2024-01-16T09:37:34;13.90;;;3.80;;
32080;SDS011;18593;51.426;7.030;2024-01-16T09:40:02;13.60;;;4.00;;
32080;SDS011;18593;51.426;7.030;2024-01-16T09:42:33;14.43;;;4.32;;
32080;SDS011;18593;51.426;7.030;2024-01-16T09:45:02;20.15;;;4.13;;
32080;SDS011;18593;51.426;7.030;2024-01-16T09:47:30;16.85;;;4.50;;
32080;SDS011;18593;51.426;7.030;2024-01-16T09:49:59;16.13;;;4.10;;
32080;SDS011;18593;51.426;7.030;2024-01-16T09:52:32;10.45;;;4.03;;
32080;SDS011;18593;51.426;7.030;2024-01-16T09:55:00;18.90;;;4.45;;
32080;SDS011;18593;51.426;7.030;2024-01-16T09:57:27;13.88;;;4.30;;
32080;SDS011;18593;51.426;7.030;2024-01-16T09:59:58;17.60;;;4.47;;
32080;SDS011;18593;51.426;7.030;2024-01-16T10:02:32;15.32;;;4.28;;
32080;SDS011;18593;51.426;7.030;2024-01-16T10:05:02;12.43;;;4.25;;
32080;SDS011;18593;51.426;7.030;2024-01-16T10:07:31;10.27;;;4.53;;
32080;SDS011;18593;51.426;7.030;2024-01-16T10:09:59;18.60;;;4.45;;
32080;SDS011;18593;51.426;7.030;2024-01-16T10:12:27;13.02;;;4.95;;
32080;SDS011;18593;51.426;7.030;2024-01-16T10:14:55;16.30;;;5.03;;
32080;SDS011;18593;51.426;7.030;2024-01-16T10:17:35;16.83;;;5.22;;
32080;SDS011;18593;51.426;7.030;2024-01-16T10:20:03;19.92;;;4.72;;
32080;SDS011;18593;51.426;7.030;2024-01-16T10:22:33;14.30;;;3.85;;
32080;SDS011;18593;51.426;7.030;2024-01-16T10:25:04;17.58;;;6.53;;
32080;SDS011;18593;51.426;7.030;2024-01-16T10:27:33;26.98;;;8.15;;
32080;SDS011;18593;51.426;7.030;2024-01-16T10:30:03;18.45;;;5.15;;
32080;SDS011;18593;51.426;7.030;2024-01-16T10:32:35;19.85;;;5.88;;
32080;SDS011;18593;51.426;7.030;2024-01-16T10:35:05;15.27;;;5.35;;
32080;SDS011;18593;51.426;7.030;2024-01-16T10:37:42;16.60;;;5.35;;
32080;SDS011;18593;51.426;7.030;2024-01-16T10:40:14;20.70;;;5.28;;
32080;SDS011;18593;51.426;7.030;2024-01-16T10:42:45;14.48;;;4.78;;
32080;SDS011;18593;51.426;7.030;2024-01-16T10:45:24;16.40;;;5.57;;
32080;SDS011;18593;51.426;7.030;2024-01-16T10:47:59;14.55;;;4.85;;
32080;SDS011;18593;51.426;7.030;2024-01-16T10:53:24;17.38;;;5.80;;
32080;SDS011;18593;51.426;7.030;2024-01-16T10:55:57;12.90;;;4.75;;
32080;SDS011;18593;51.426;7.030;2024-01-16T10:58:28;17.90;;;5.07;;
32080;SDS011;18593;51.426;7.030;2024-01-16T11:01:01;13.20;;;4.50;;
32080;SDS011;18593;51.426;7.030;2024-01-16T11:03:34;13.40;;;4.57;;
32080;SDS011;18593;51.426;7.030;2024-01-16T11:06:05;14.73;;;4.72;;
32080;SDS011;18593;51.426;7.030;2024-01-16T11:08:35;16.13;;;4.75;;
32080;SDS011;18593;51.426;7.030;2024-01-16T11:11:04;16.73;;;5.15;;
32080;SDS011;18593;51.426;7.030;2024-01-16T11:13:33;17.40;;;5.07;;
32080;SDS011;18593;51.426;7.030;2024-01-16T11:16:04;11.95;;;4.32;;
32080;SDS011;18593;51.426;7.030;2024-01-16T11:18:33;12.77;;;4.03;;
32080;SDS011;18593;51.426;7.030;2024-01-16T11:21:01;11.30;;;4.70;;
32080;SDS011;18593;51.426;7.030;2024-01-16T11:23:32;13.13;;;4.75;;
32080;SDS011;18593;51.426;7.030;2024-01-16T11:26:03;16.48;;;4.97;;
32080;SDS011;18593;51.426;7.030;2024-01-16T11:28:58;17.02;;;4.95;;
32080;SDS011;18593;51.426;7.030;2024-01-16T11:32:08;15.88;;;4.93;;
32080;SDS011;18593;51.426;7.030;2024-01-16T11:35:03;13.40;;;4.78;;
32080;SDS011;18593;51.426;7.030;2024-01-16T11:37:31;15.05;;;5.15;;
32080;SDS011;18593;51.426;7.030;2024-01-16T11:42:53;14.75;;;4.70;;
32080;SDS011;18593;51.426;7.030;2024-01-16T11:48:17;15.75;;;4.65;;
32080;SDS011;18593;51.426;7.030;2024-01-16T11:50:45;14.38;;;5.47;;
32080;SDS011;18593;51.426;7.030;2024-01-16T11:59:37;21.13;;;5.97;;
32080;SDS011;18593;51.426;7.030;2024-01-16T12:02:38;12.32;;;4.28;;
32080;SDS011;18593;51.426;7.030;2024-01-16T12:05:24;11.20;;;4.22;;
32080;SDS011;18593;51.426;7.030;2024-01-16T12:07:52;18.15;;;5.55;;
32080;SDS011;18593;51.426;7.030;2024-01-16T12:10:21;16.50;;;5.25;;
32080;SDS011;18593;51.426;7.030;2024-01-16T12:12:50;15.00;;;5.13;;
32080;SDS011;18593;51.426;7.030;2024-01-16T12:15:25;15.90;;;5.32;;
32080;SDS011;18593;51.426;7.030;2024-01-16T12:17:55;15.88;;;5.13;;
32080;SDS011;18593;51.426;7.030;2024-01-16T12:20:30;14.45;;;4.78;;
32080;SDS011;18593;51.426;7.030;2024-01-16T12:22:59;13.65;;;4.75;;
32080;SDS011;18593;51.426;7.030;2024-01-16T12:25:31;17.58;;;5.32;;
32080;SDS011;18593;51.426;7.030;2024-01-16T12:28:00;12.93;;;4.65;;
32080;SDS011;18593;51.426;7.030;2024-01-16T12:30:29;15.48;;;4.93;;
32080;SDS011;18593;51.426;7.030;2024-01-16T12:33:05;14.43;;;5.00;;
32080;SDS011;18593;51.426;7.030;2024-01-16T12:35:36;12.15;;;4.93;;
32080;SDS011;18593;51.426;7.030;2024-01-16T12:38:05;14.35;;;4.55;;
32080;SDS011;18593;51.426;7.030;2024-01-16T12:40:39;13.35;;;4.97;;
32080;SDS011;18593;51.426;7.030;2024-01-16T12:43:08;13.27;;;4.30;;
32080;SDS011;18593;51.426;7.030;2024-01-16T12:45:39;13.45;;;4.68;;
32080;SDS011;18593;51.426;7.030;2024-01-16T12:48:09;14.13;;;5.40;;
32080;SDS011;18593;51.426;7.030;2024-01-16T12:50:39;16.45;;;4.57;;
32080;SDS011;18593;51.426;7.030;2024-01-16T12:53:08;13.55;;;4.80;;
32080;SDS011;18593;51.426;7.030;2024-01-16T12:55:37;13.40;;;4.55;;
32080;SDS011;18593;51.426;7.030;2024-01-16T12:58:16;15.65;;;4.53;;
32080;SDS011;18593;51.426;7.030;2024-01-16T13:00:45;16.00;;;4.85;;
32080;SDS011;18593;51.426;7.030;2024-01-16T13:03:16;12.38;;;4.90;;
32080;SDS011;18593;51.426;7.030;2024-01-16T13:05:56;15.73;;;4.93;;
32080;SDS011;18593;51.426;7.030;2024-01-16T13:08:26;10.38;;;4.97;;
32080;SDS011;18593;51.426;7.030;2024-01-16T13:11:04;14.25;;;4.78;;
32080;SDS011;18593;51.426;7.030;2024-01-16T13:13:34;18.45;;;5.35;;
32080;SDS011;18593;51.426;7.030;2024-01-16T13:16:04;13.52;;;4.70;;
32080;SDS011;18593;51.426;7.030;2024-01-16T13:18:34;14.13;;;5.05;;
32080;SDS011;18593;51.426;7.030;2024-01-16T13:21:03;14.90;;;5.63;;
32080;SDS011;18593;51.426;7.030;2024-01-16T13:23:31;11.43;;;4.80;;
32080;SDS011;18593;51.426;7.030;2024-01-16T13:25:58;20.85;;;5.35;;
32080;SDS011;18593;51.426;7.030;2024-01-16T13:28:27;18.42;;;5.05;;
32080;SDS011;18593;51.426;7.030;2024-01-16T13:30:56;15.45;;;5.32;;
32080;SDS011;18593;51.426;7.030;2024-01-16T13:33:24;13.40;;;5.13;;
32080;SDS011;18593;51.426;7.030;2024-01-16T13:35:53;20.20;;;5.90;;
32080;SDS011;18593;51.426;7.030;2024-01-16T13:38:22;16.23;;;5.78;;
32080;SDS011;18593;51.426;7.030;2024-01-16T13:40:53;14.55;;;5.78;;
32080;SDS011;18593;51.426;7.030;2024-01-16T13:43:20;16.48;;;5.60;;
32080;SDS011;18593;51.426;7.030;2024-01-16T13:45:48;17.23;;;5.18;;
32080;SDS011;18593;51.426;7.030;2024-01-16T13:48:21;16.13;;;5.80;;
32080;SDS011;18593;51.426;7.030;2024-01-16T13:50:49;13.05;;;5.88;;
32080;SDS011;18593;51.426;7.030;2024-01-16T13:53:17;19.45;;;5.93;;
32080;SDS011;18593;51.426;7.030;2024-01-16T13:55:46;14.93;;;5.95;;
32080;SDS011;18593;51.426;7.030;2024-01-16T13:58:14;14.13;;;5.88;;
32080;SDS011;18593;51.426;7.030;2024-01-16T14:00:41;16.85;;;5.80;;
32080;SDS011;18593;51.426;7.030;2024-01-16T14:03:09;16.63;;;6.13;;
32080;SDS011;18593;51.426;7.030;2024-01-16T14:05:37;15.88;;;5.38;;
32080;SDS011;18593;51.426;7.030;2024-01-16T14:08:07;11.75;;;5.10;;
32080;SDS011;18593;51.426;7.030;2024-01-16T14:10:38;12.77;;;5.50;;
32080;SDS011;18593;51.426;7.030;2024-01-16T14:13:08;14.80;;;5.50;;
32080;SDS011;18593;51.426;7.030;2024-01-16T14:15:35;14.07;;;5.65;;
32080;SDS011;18593;51.426;7.030;2024-01-16T14:18:04;10.77;;;5.18;;
32080;SDS011;18593;51.426;7.030;2024-01-16T14:20:38;13.98;;;5.18;;
32080;SDS011;18593;51.426;7.030;2024-01-16T14:23:08;15.65;;;5.50;;
32080;SDS011;18593;51.426;7.030;2024-01-16T14:25:38;14.35;;;5.90;;
32080;SDS011;18593;51.426;7.030;2024-01-16T14:28:05;15.20;;;5.53;;
32080;SDS011;18593;51.426;7.030;2024-01-16T14:30:39;12.98;;;5.38;;
32080;SDS011;18593;51.426;7.030;2024-01-16T14:33:08;12.23;;;5.35;;
32080;SDS011;18593;51.426;7.030;2024-01-16T14:35:35;11.23;;;5.38;;
32080;SDS011;18593;51.426;7.030;2024-01-16T14:38:03;13.40;;;5.20;;
32080;SDS011;18593;51.426;7.030;2024-01-16T14:40:31;13.15;;;5.30;;
32080;SDS011;18593;51.426;7.030;2024-01-16T14:42:59;13.65;;;5.18;;
32080;SDS011;18593;51.426;7.030;2024-01-16T14:47:59;15.90;;;5.82;;
32080;SDS011;18593;51.426;7.030;2024-01-16T14:50:28;12.52;;;5.40;;
32080;SDS011;18593;51.426;7.030;2024-01-16T14:52:56;10.88;;;5.38;;
32080;SDS011;18593;51.426;7.030;2024-01-16T14:55:23;11.43;;;5.55;;
32080;SDS011;18593;51.426;7.030;2024-01-16T14:57:51;30.48;;;7.15;;
32080;SDS011;18593;51.426;7.030;2024-01-16T15:00:25;13.93;;;5.10;;
32080;SDS011;18593;51.426;7.030;2024-01-16T15:02:54;16.02;;;5.93;;